sensor_id;sensor_type;location;lat;lon;timestamp;temperature;humidity
19256;DHT22;9762;52.490;13.410;2023-04-21T00:01:15;15.20;91.80
19256;DHT22;9762;52.490;13.410;2023-04-21T00:03:42;15.20;91.80
19256;DHT22;9762;52.490;13.410;2023-04-21T00:06:08;15.20;91.80
19256;DHT22;9762;52.490;13.410;2023-04-21T00:08:34;15.20;91.90
19256;DHT22;9762;52.490;13.410;2023-04-21T00:11:06;15.20;91.90
19256;DHT22;9762;52.490;13.410;2023-04-21T00:13:33;15.20;91.90
19256;DHT22;9762;52.490;13.410;2023-04-21T00:16:00;15.20;92.00
19256;DHT22;9762;52.490;13.410;2023-04-21T00:18:26;15.20;92.00
19256;DHT22;9762;52.490;13.410;2023-04-21T00:20:52;15.10;92.10
19256;DHT22;9762;52.490;13.410;2023-04-21T00:23:18;15.10;92.10
19256;DHT22;9762;52.490;13.410;2023-04-21T00:25:43;15.10;92.10
19256;DHT22;9762;52.490;13.410;2023-04-21T00:28:09;15.10;92.10
19256;DHT22;9762;52.490;13.410;2023-04-21T00:30:34;15.10;92.20
19256;DHT22;9762;52.490;13.410;2023-04-21T00:33:00;15.00;92.20
19256;DHT22;9762;52.490;13.410;2023-04-21T00:35:26;15.00;92.20
19256;DHT22;9762;52.490;13.410;2023-04-21T00:37:51;15.00;92.30
19256;DHT22;9762;52.490;13.410;2023-04-21T00:40:17;14.90;92.30
19256;DHT22;9762;52.490;13.410;2023-04-21T00:42:43;14.90;92.30
19256;DHT22;9762;52.490;13.410;2023-04-21T00:45:08;14.90;92.30
19256;DHT22;9762;52.490;13.410;2023-04-21T00:47:34;14.90;92.30
19256;DHT22;9762;52.490;13.410;2023-04-21T00:50:00;14.80;92.30
19256;DHT22;9762;52.490;13.410;2023-04-21T00:52:27;14.80;92.30
19256;DHT22;9762;52.490;13.410;2023-04-21T00:54:53;14.80;92.30
19256;DHT22;9762;52.490;13.410;2023-04-21T00:57:19;14.70;92.30
19256;DHT22;9762;52.490;13.410;2023-04-21T00:59:45;14.70;92.20
19256;DHT22;9762;52.490;13.410;2023-04-21T01:02:11;14.60;92.20
19256;DHT22;9762;52.490;13.410;2023-04-21T01:04:36;14.60;92.20
19256;DHT22;9762;52.490;13.410;2023-04-21T01:07:04;14.70;92.20
19256;DHT22;9762;52.490;13.410;2023-04-21T01:09:32;14.80;92.00
19256;DHT22;9762;52.490;13.410;2023-04-21T01:14:30;14.80;91.90
19256;DHT22;9762;52.490;13.410;2023-04-21T01:16:56;14.80;91.80
19256;DHT22;9762;52.490;13.410;2023-04-21T01:19:22;14.80;92.00
19256;DHT22;9762;52.490;13.410;2023-04-21T01:21:49;14.80;91.70
19256;DHT22;9762;52.490;13.410;2023-04-21T01:24:18;14.70;91.60
19256;DHT22;9762;52.490;13.410;2023-04-21T01:26:44;14.70;91.50
19256;DHT22;9762;52.490;13.410;2023-04-21T01:29:16;14.70;91.50
19256;DHT22;9762;52.490;13.410;2023-04-21T01:31:42;14.60;91.40
19256;DHT22;9762;52.490;13.410;2023-04-21T01:34:08;14.60;91.40
19256;DHT22;9762;52.490;13.410;2023-04-21T01:36:35;14.60;91.30
19256;DHT22;9762;52.490;13.410;2023-04-21T01:39:01;14.50;91.20
19256;DHT22;9762;52.490;13.410;2023-04-21T01:41:27;14.50;91.30
19256;DHT22;9762;52.490;13.410;2023-04-21T01:43:52;14.40;91.30
19256;DHT22;9762;52.490;13.410;2023-04-21T01:46:19;14.40;91.40
19256;DHT22;9762;52.490;13.410;2023-04-21T01:48:45;14.40;91.40
19256;DHT22;9762;52.490;13.410;2023-04-21T01:51:11;14.40;91.40
19256;DHT22;9762;52.490;13.410;2023-04-21T01:53:36;14.40;91.20
19256;DHT22;9762;52.490;13.410;2023-04-21T01:56:02;14.40;91.20
19256;DHT22;9762;52.490;13.410;2023-04-21T01:58:28;14.40;91.00
19256;DHT22;9762;52.490;13.410;2023-04-21T02:00:53;14.40;91.00
19256;DHT22;9762;52.490;13.410;2023-04-21T02:03:19;14.40;90.90
19256;DHT22;9762;52.490;13.410;2023-04-21T02:05:44;14.40;90.90
19256;DHT22;9762;52.490;13.410;2023-04-21T02:08:10;14.40;91.00
19256;DHT22;9762;52.490;13.410;2023-04-21T02:10:36;14.40;90.80
19256;DHT22;9762;52.490;13.410;2023-04-21T02:13:01;14.40;90.80
19256;DHT22;9762;52.490;13.410;2023-04-21T02:15:27;14.40;90.80
19256;DHT22;9762;52.490;13.410;2023-04-21T02:17:53;14.30;90.60
19256;DHT22;9762;52.490;13.410;2023-04-21T02:20:18;14.30;90.80
19256;DHT22;9762;52.490;13.410;2023-04-21T02:22:44;14.30;90.70
19256;DHT22;9762;52.490;13.410;2023-04-21T02:25:09;14.30;90.80
19256;DHT22;9762;52.490;13.410;2023-04-21T02:27:35;14.20;90.70
19256;DHT22;9762;52.490;13.410;2023-04-21T02:30:01;14.30;90.60
19256;DHT22;9762;52.490;13.410;2023-04-21T02:32:27;14.30;90.50
19256;DHT22;9762;52.490;13.410;2023-04-21T02:34:52;14.40;90.50
19256;DHT22;9762;52.490;13.410;2023-04-21T02:37:19;14.30;90.40
19256;DHT22;9762;52.490;13.410;2023-04-21T02:39:44;14.30;90.40
19256;DHT22;9762;52.490;13.410;2023-04-21T02:42:10;14.20;90.50
19256;DHT22;9762;52.490;13.410;2023-04-21T02:44:38;14.20;90.40
19256;DHT22;9762;52.490;13.410;2023-04-21T02:47:04;14.10;90.50
19256;DHT22;9762;52.490;13.410;2023-04-21T02:49:30;14.10;90.50
19256;DHT22;9762;52.490;13.410;2023-04-21T02:51:57;14.10;90.40
19256;DHT22;9762;52.490;13.410;2023-04-21T02:54:22;14.10;90.40
19256;DHT22;9762;52.490;13.410;2023-04-21T02:56:48;14.00;90.40
19256;DHT22;9762;52.490;13.410;2023-04-21T02:59:13;14.00;90.50
19256;DHT22;9762;52.490;13.410;2023-04-21T03:01:42;13.90;90.50
19256;DHT22;9762;52.490;13.410;2023-04-21T03:04:07;13.90;90.60
19256;DHT22;9762;52.490;13.410;2023-04-21T03:06:33;13.90;90.60
19256;DHT22;9762;52.490;13.410;2023-04-21T03:08:58;13.90;90.60
19256;DHT22;9762;52.490;13.410;2023-04-21T03:11:24;13.80;90.60
19256;DHT22;9762;52.490;13.410;2023-04-21T03:13:50;13.80;90.60
19256;DHT22;9762;52.490;13.410;2023-04-21T03:16:15;13.70;90.60
19256;DHT22;9762;52.490;13.410;2023-04-21T03:18:41;13.70;90.60
19256;DHT22;9762;52.490;13.410;2023-04-21T03:21:07;13.80;90.60
19256;DHT22;9762;52.490;13.410;2023-04-21T03:23:32;13.70;90.60
19256;DHT22;9762;52.490;13.410;2023-04-21T03:25:58;13.70;90.70
19256;DHT22;9762;52.490;13.410;2023-04-21T03:28:23;13.70;90.60
19256;DHT22;9762;52.490;13.410;2023-04-21T03:30:49;13.70;90.60
19256;DHT22;9762;52.490;13.410;2023-04-21T03:33:15;13.60;90.50
19256;DHT22;9762;52.490;13.410;2023-04-21T03:35:40;13.60;90.60
19256;DHT22;9762;52.490;13.410;2023-04-21T03:38:06;13.50;90.70
19256;DHT22;9762;52.490;13.410;2023-04-21T03:40:31;13.60;90.60
19256;DHT22;9762;52.490;13.410;2023-04-21T03:42:57;13.60;90.60
19256;DHT22;9762;52.490;13.410;2023-04-21T03:45:23;13.60;90.60
19256;DHT22;9762;52.490;13.410;2023-04-21T03:47:52;13.50;90.60
19256;DHT22;9762;52.490;13.410;2023-04-21T03:50:19;13.50;90.70
19256;DHT22;9762;52.490;13.410;2023-04-21T03:52:44;13.50;90.60
19256;DHT22;9762;52.490;13.410;2023-04-21T03:55:10;13.50;90.70
19256;DHT22;9762;52.490;13.410;2023-04-21T03:57:39;13.50;90.70
19256;DHT22;9762;52.490;13.410;2023-04-21T04:00:07;13.40;90.60
19256;DHT22;9762;52.490;13.410;2023-04-21T04:02:36;13.40;90.70
19256;DHT22;9762;52.490;13.410;2023-04-21T04:05:03;13.40;90.70
19256;DHT22;9762;52.490;13.410;2023-04-21T04:07:30;13.50;90.70
19256;DHT22;9762;52.490;13.410;2023-04-21T04:09:56;13.50;90.60
19256;DHT22;9762;52.490;13.410;2023-04-21T04:12:22;13.50;90.50
19256;DHT22;9762;52.490;13.410;2023-04-21T04:14:47;13.50;90.40
19256;DHT22;9762;52.490;13.410;2023-04-21T04:17:13;13.50;90.70
19256;DHT22;9762;52.490;13.410;2023-04-21T04:19:38;13.50;90.40
19256;DHT22;9762;52.490;13.410;2023-04-21T04:22:04;13.50;90.40
19256;DHT22;9762;52.490;13.410;2023-04-21T04:24:32;13.50;90.40
19256;DHT22;9762;52.490;13.410;2023-04-21T04:26:58;13.50;90.50
19256;DHT22;9762;52.490;13.410;2023-04-21T04:29:24;13.50;90.40
19256;DHT22;9762;52.490;13.410;2023-04-21T04:31:52;13.50;90.50
19256;DHT22;9762;52.490;13.410;2023-04-21T04:34:18;13.50;90.40
19256;DHT22;9762;52.490;13.410;2023-04-21T04:36:44;13.50;90.40
19256;DHT22;9762;52.490;13.410;2023-04-21T04:39:10;13.40;90.50
19256;DHT22;9762;52.490;13.410;2023-04-21T04:41:37;13.40;90.60
19256;DHT22;9762;52.490;13.410;2023-04-21T04:44:02;13.40;90.80
19256;DHT22;9762;52.490;13.410;2023-04-21T04:46:32;13.40;90.50
19256;DHT22;9762;52.490;13.410;2023-04-21T04:48:59;13.40;90.60
19256;DHT22;9762;52.490;13.410;2023-04-21T04:51:25;13.30;90.60
19256;DHT22;9762;52.490;13.410;2023-04-21T04:53:51;13.30;90.60
19256;DHT22;9762;52.490;13.410;2023-04-21T04:56:16;13.30;91.00
19256;DHT22;9762;52.490;13.410;2023-04-21T04:58:42;13.30;90.70
19256;DHT22;9762;52.490;13.410;2023-04-21T05:01:14;13.20;90.70
19256;DHT22;9762;52.490;13.410;2023-04-21T05:03:41;13.30;90.70
19256;DHT22;9762;52.490;13.410;2023-04-21T05:06:07;13.30;90.70
19256;DHT22;9762;52.490;13.410;2023-04-21T05:08:34;13.30;90.60
19256;DHT22;9762;52.490;13.410;2023-04-21T05:11:00;13.40;90.50
19256;DHT22;9762;52.490;13.410;2023-04-21T05:13:25;13.40;90.40
19256;DHT22;9762;52.490;13.410;2023-04-21T05:15:58;13.40;90.40
19256;DHT22;9762;52.490;13.410;2023-04-21T05:18:26;13.50;90.40
19256;DHT22;9762;52.490;13.410;2023-04-21T05:20:52;13.50;90.30
19256;DHT22;9762;52.490;13.410;2023-04-21T05:23:17;13.50;90.20
19256;DHT22;9762;52.490;13.410;2023-04-21T05:25:43;13.50;90.10
19256;DHT22;9762;52.490;13.410;2023-04-21T05:28:09;13.60;90.10
19256;DHT22;9762;52.490;13.410;2023-04-21T05:30:35;13.60;90.00
19256;DHT22;9762;52.490;13.410;2023-04-21T05:33:01;13.60;90.10
19256;DHT22;9762;52.490;13.410;2023-04-21T05:35:29;13.60;90.20
19256;DHT22;9762;52.490;13.410;2023-04-21T05:37:55;13.60;90.10
19256;DHT22;9762;52.490;13.410;2023-04-21T05:40:21;13.60;90.10
19256;DHT22;9762;52.490;13.410;2023-04-21T05:42:47;13.70;90.00
19256;DHT22;9762;52.490;13.410;2023-04-21T05:45:12;13.70;90.00
19256;DHT22;9762;52.490;13.410;2023-04-21T05:47:38;13.70;89.90
19256;DHT22;9762;52.490;13.410;2023-04-21T05:50:05;13.80;89.70
19256;DHT22;9762;52.490;13.410;2023-04-21T05:52:30;13.80;89.50
19256;DHT22;9762;52.490;13.410;2023-04-21T05:54:57;13.80;89.40
19256;DHT22;9762;52.490;13.410;2023-04-21T05:57:24;13.80;90.10
19256;DHT22;9762;52.490;13.410;2023-04-21T05:59:49;13.90;89.50
19256;DHT22;9762;52.490;13.410;2023-04-21T06:02:15;13.90;89.10
19256;DHT22;9762;52.490;13.410;2023-04-21T06:04:40;14.00;88.80
19256;DHT22;9762;52.490;13.410;2023-04-21T06:07:07;14.00;88.80
19256;DHT22;9762;52.490;13.410;2023-04-21T06:09:34;14.10;88.80
19256;DHT22;9762;52.490;13.410;2023-04-21T06:12:04;14.10;88.40
19256;DHT22;9762;52.490;13.410;2023-04-21T06:14:30;14.20;87.80
19256;DHT22;9762;52.490;13.410;2023-04-21T06:16:55;14.20;87.80
19256;DHT22;9762;52.490;13.410;2023-04-21T06:19:21;14.30;87.40
19256;DHT22;9762;52.490;13.410;2023-04-21T06:21:47;14.40;87.50
19256;DHT22;9762;52.490;13.410;2023-04-21T06:24:12;14.50;87.40
19256;DHT22;9762;52.490;13.410;2023-04-21T06:26:38;14.50;87.30
19256;DHT22;9762;52.490;13.410;2023-04-21T06:29:03;14.60;87.00
19256;DHT22;9762;52.490;13.410;2023-04-21T06:31:29;14.70;85.90
19256;DHT22;9762;52.490;13.410;2023-04-21T06:33:55;14.80;86.10
19256;DHT22;9762;52.490;13.410;2023-04-21T06:36:20;14.90;86.70
19256;DHT22;9762;52.490;13.410;2023-04-21T06:38:47;14.90;86.10
19256;DHT22;9762;52.490;13.410;2023-04-21T06:41:13;15.00;85.60
19256;DHT22;9762;52.490;13.410;2023-04-21T06:43:38;15.00;86.20
19256;DHT22;9762;52.490;13.410;2023-04-21T06:46:04;15.00;85.30
19256;DHT22;9762;52.490;13.410;2023-04-21T06:48:30;15.00;85.10
19256;DHT22;9762;52.490;13.410;2023-04-21T06:50:56;15.10;85.40
19256;DHT22;9762;52.490;13.410;2023-04-21T06:53:21;15.20;85.60
19256;DHT22;9762;52.490;13.410;2023-04-21T06:55:47;15.20;84.30
19256;DHT22;9762;52.490;13.410;2023-04-21T06:58:13;15.30;84.50
19256;DHT22;9762;52.490;13.410;2023-04-21T07:00:39;15.30;84.10
19256;DHT22;9762;52.490;13.410;2023-04-21T07:03:04;15.40;83.70
19256;DHT22;9762;52.490;13.410;2023-04-21T07:05:31;15.50;83.40
19256;DHT22;9762;52.490;13.410;2023-04-21T07:07:57;15.60;82.70
19256;DHT22;9762;52.490;13.410;2023-04-21T07:10:27;15.70;82.50
19256;DHT22;9762;52.490;13.410;2023-04-21T07:12:54;15.80;82.60
19256;DHT22;9762;52.490;13.410;2023-04-21T07:15:19;15.90;81.70
19256;DHT22;9762;52.490;13.410;2023-04-21T07:17:45;15.90;81.70
19256;DHT22;9762;52.490;13.410;2023-04-21T07:20:11;16.00;81.40
19256;DHT22;9762;52.490;13.410;2023-04-21T07:22:36;16.00;81.80
19256;DHT22;9762;52.490;13.410;2023-04-21T07:25:03;16.10;81.60
19256;DHT22;9762;52.490;13.410;2023-04-21T07:27:33;16.20;81.20
19256;DHT22;9762;52.490;13.410;2023-04-21T07:29:59;16.30;81.10
19256;DHT22;9762;52.490;13.410;2023-04-21T07:32:25;16.40;79.70
19256;DHT22;9762;52.490;13.410;2023-04-21T07:34:51;16.50;79.30
19256;DHT22;9762;52.490;13.410;2023-04-21T07:37:17;16.50;79.20
19256;DHT22;9762;52.490;13.410;2023-04-21T07:39:43;16.50;79.10
19256;DHT22;9762;52.490;13.410;2023-04-21T07:42:08;16.60;78.70
19256;DHT22;9762;52.490;13.410;2023-04-21T07:44:35;16.60;78.40
19256;DHT22;9762;52.490;13.410;2023-04-21T07:47:01;16.60;78.40
19256;DHT22;9762;52.490;13.410;2023-04-21T07:49:27;16.60;78.70
19256;DHT22;9762;52.490;13.410;2023-04-21T07:51:52;16.70;78.10
19256;DHT22;9762;52.490;13.410;2023-04-21T07:54:18;16.70;77.90
19256;DHT22;9762;52.490;13.410;2023-04-21T07:56:44;16.80;77.60
19256;DHT22;9762;52.490;13.410;2023-04-21T07:59:09;16.80;77.90
19256;DHT22;9762;52.490;13.410;2023-04-21T08:01:35;16.90;77.20
19256;DHT22;9762;52.490;13.410;2023-04-21T08:04:00;17.00;77.00
19256;DHT22;9762;52.490;13.410;2023-04-21T08:06:26;17.00;76.60
19256;DHT22;9762;52.490;13.410;2023-04-21T08:08:52;17.10;76.70
19256;DHT22;9762;52.490;13.410;2023-04-21T08:11:20;17.10;76.10
19256;DHT22;9762;52.490;13.410;2023-04-21T08:13:47;17.30;76.00
19256;DHT22;9762;52.490;13.410;2023-04-21T08:16:12;17.40;75.90
19256;DHT22;9762;52.490;13.410;2023-04-21T08:18:38;17.50;75.00
19256;DHT22;9762;52.490;13.410;2023-04-21T08:21:04;17.60;74.40
19256;DHT22;9762;52.490;13.410;2023-04-21T08:23:30;17.60;74.40
19256;DHT22;9762;52.490;13.410;2023-04-21T08:25:56;17.70;74.00
19256;DHT22;9762;52.490;13.410;2023-04-21T08:28:21;17.80;73.80
19256;DHT22;9762;52.490;13.410;2023-04-21T08:30:47;17.90;72.90
19256;DHT22;9762;52.490;13.410;2023-04-21T08:33:13;18.00;72.70
19256;DHT22;9762;52.490;13.410;2023-04-21T08:35:39;18.10;72.60
19256;DHT22;9762;52.490;13.410;2023-04-21T08:38:06;18.20;72.10
19256;DHT22;9762;52.490;13.410;2023-04-21T08:40:36;18.20;71.80
19256;DHT22;9762;52.490;13.410;2023-04-21T08:43:07;18.30;72.40
19256;DHT22;9762;52.490;13.410;2023-04-21T08:45:33;18.40;71.40
19256;DHT22;9762;52.490;13.410;2023-04-21T08:48:00;18.50;70.60
19256;DHT22;9762;52.490;13.410;2023-04-21T08:50:28;18.70;70.60
19256;DHT22;9762;52.490;13.410;2023-04-21T08:52:54;18.80;70.70
19256;DHT22;9762;52.490;13.410;2023-04-21T08:55:25;18.90;69.60
19256;DHT22;9762;52.490;13.410;2023-04-21T08:57:51;19.00;68.80
19256;DHT22;9762;52.490;13.410;2023-04-21T09:00:17;19.00;68.40
19256;DHT22;9762;52.490;13.410;2023-04-21T09:02:56;19.10;68.50
19256;DHT22;9762;52.490;13.410;2023-04-21T09:05:24;19.10;68.90
19256;DHT22;9762;52.490;13.410;2023-04-21T09:07:50;19.30;69.20
19256;DHT22;9762;52.490;13.410;2023-04-21T09:10:23;19.40;68.30
19256;DHT22;9762;52.490;13.410;2023-04-21T09:12:50;19.50;67.50
19256;DHT22;9762;52.490;13.410;2023-04-21T09:15:19;19.50;67.20
19256;DHT22;9762;52.490;13.410;2023-04-21T09:17:45;19.60;66.70
19256;DHT22;9762;52.490;13.410;2023-04-21T09:20:21;19.60;66.70
19256;DHT22;9762;52.490;13.410;2023-04-21T09:22:50;19.60;66.20
19256;DHT22;9762;52.490;13.410;2023-04-21T09:25:18;19.70;66.30
19256;DHT22;9762;52.490;13.410;2023-04-21T09:27:45;19.80;66.50
19256;DHT22;9762;52.490;13.410;2023-04-21T09:30:11;19.80;65.90
19256;DHT22;9762;52.490;13.410;2023-04-21T09:32:38;19.90;65.80
19256;DHT22;9762;52.490;13.410;2023-04-21T09:35:08;20.00;65.30
19256;DHT22;9762;52.490;13.410;2023-04-21T09:37:34;20.00;65.10
19256;DHT22;9762;52.490;13.410;2023-04-21T09:40:00;20.10;65.30
19256;DHT22;9762;52.490;13.410;2023-04-21T09:42:30;20.20;65.20
19256;DHT22;9762;52.490;13.410;2023-04-21T09:44:56;20.30;64.50
19256;DHT22;9762;52.490;13.410;2023-04-21T09:47:22;20.40;64.30
19256;DHT22;9762;52.490;13.410;2023-04-21T09:49:51;20.40;64.20
19256;DHT22;9762;52.490;13.410;2023-04-21T09:52:19;20.50;63.80
19256;DHT22;9762;52.490;13.410;2023-04-21T09:54:57;20.60;63.30
19256;DHT22;9762;52.490;13.410;2023-04-21T09:57:25;20.60;63.40
19256;DHT22;9762;52.490;13.410;2023-04-21T10:00:04;20.60;63.10
19256;DHT22;9762;52.490;13.410;2023-04-21T10:02:31;20.70;63.20
19256;DHT22;9762;52.490;13.410;2023-04-21T10:04:58;20.70;62.30
19256;DHT22;9762;52.490;13.410;2023-04-21T10:07:24;20.70;62.10
19256;DHT22;9762;52.490;13.410;2023-04-21T10:09:50;20.70;62.20
19256;DHT22;9762;52.490;13.410;2023-04-21T10:12:18;20.70;61.10
19256;DHT22;9762;52.490;13.410;2023-04-21T10:14:44;20.80;61.90
19256;DHT22;9762;52.490;13.410;2023-04-21T10:17:10;20.90;61.70
19256;DHT22;9762;52.490;13.410;2023-04-21T10:19:46;20.90;61.50
19256;DHT22;9762;52.490;13.410;2023-04-21T10:22:12;21.00;61.00
19256;DHT22;9762;52.490;13.410;2023-04-21T10:24:38;21.00;60.90
19256;DHT22;9762;52.490;13.410;2023-04-21T10:27:04;21.10;60.40
19256;DHT22;9762;52.490;13.410;2023-04-21T10:29:32;21.10;59.90
19256;DHT22;9762;52.490;13.410;2023-04-21T10:31:58;21.00;59.50
19256;DHT22;9762;52.490;13.410;2023-04-21T10:39:25;21.00;59.50
19256;DHT22;9762;52.490;13.410;2023-04-21T10:41:54;21.00;59.10
19256;DHT22;9762;52.490;13.410;2023-04-21T10:44:21;20.90;59.70
19256;DHT22;9762;52.490;13.410;2023-04-21T10:46:48;21.10;60.10
19256;DHT22;9762;52.490;13.410;2023-04-21T10:49:26;21.60;59.80
19256;DHT22;9762;52.490;13.410;2023-04-21T10:57:18;24.60;54.30
19256;DHT22;9762;52.490;13.410;2023-04-21T10:59:45;25.70;52.80
19256;DHT22;9762;52.490;13.410;2023-04-21T11:02:13;26.70;55.70
19256;DHT22;9762;52.490;13.410;2023-04-21T11:04:40;27.40;48.60
19256;DHT22;9762;52.490;13.410;2023-04-21T11:07:17;27.80;48.30
19256;DHT22;9762;52.490;13.410;2023-04-21T11:10:04;28.60;47.60
19256;DHT22;9762;52.490;13.410;2023-04-21T11:12:32;29.60;45.40
19256;DHT22;9762;52.490;13.410;2023-04-21T11:14:58;30.50;46.20
19256;DHT22;9762;52.490;13.410;2023-04-21T11:17:24;31.10;42.80
19256;DHT22;9762;52.490;13.410;2023-04-21T11:19:54;31.30;41.80
19256;DHT22;9762;52.490;13.410;2023-04-21T11:22:23;31.20;41.00
19256;DHT22;9762;52.490;13.410;2023-04-21T11:24:51;31.60;41.70
19256;DHT22;9762;52.490;13.410;2023-04-21T11:27:17;32.10;40.40
19256;DHT22;9762;52.490;13.410;2023-04-21T11:29:44;32.50;40.90
19256;DHT22;9762;52.490;13.410;2023-04-21T11:32:11;32.90;39.00
19256;DHT22;9762;52.490;13.410;2023-04-21T11:34:37;33.40;39.80
19256;DHT22;9762;52.490;13.410;2023-04-21T11:37:03;34.10;38.60
19256;DHT22;9762;52.490;13.410;2023-04-21T11:39:31;34.80;38.00
19256;DHT22;9762;52.490;13.410;2023-04-21T11:41:56;34.90;36.70
19256;DHT22;9762;52.490;13.410;2023-04-21T11:44:40;35.20;36.70
19256;DHT22;9762;52.490;13.410;2023-04-21T11:49:46;34.60;35.70
19256;DHT22;9762;52.490;13.410;2023-04-21T11:55:00;34.10;36.40
19256;DHT22;9762;52.490;13.410;2023-04-21T11:57:28;33.60;35.70
19256;DHT22;9762;52.490;13.410;2023-04-21T11:59:57;33.50;36.50
19256;DHT22;9762;52.490;13.410;2023-04-21T12:02:27;33.90;36.10
19256;DHT22;9762;52.490;13.410;2023-04-21T12:05:04;33.70;35.40
19256;DHT22;9762;52.490;13.410;2023-04-21T12:07:33;33.50;36.10
19256;DHT22;9762;52.490;13.410;2023-04-21T12:09:59;33.30;35.90
19256;DHT22;9762;52.490;13.410;2023-04-21T12:12:25;33.10;36.60
19256;DHT22;9762;52.490;13.410;2023-04-21T12:14:51;32.80;36.60
19256;DHT22;9762;52.490;13.410;2023-04-21T12:17:17;32.50;37.70
19256;DHT22;9762;52.490;13.410;2023-04-21T12:19:43;32.20;36.90
19256;DHT22;9762;52.490;13.410;2023-04-21T12:22:14;31.70;37.10
19256;DHT22;9762;52.490;13.410;2023-04-21T12:24:40;31.30;38.10
19256;DHT22;9762;52.490;13.410;2023-04-21T12:27:07;31.40;38.10
19256;DHT22;9762;52.490;13.410;2023-04-21T12:29:33;31.60;38.10
19256;DHT22;9762;52.490;13.410;2023-04-21T12:32:03;32.00;38.30
19256;DHT22;9762;52.490;13.410;2023-04-21T12:34:29;32.20;37.50
19256;DHT22;9762;52.490;13.410;2023-04-21T12:36:55;32.40;37.70
19256;DHT22;9762;52.490;13.410;2023-04-21T12:39:20;32.80;37.70
19256;DHT22;9762;52.490;13.410;2023-04-21T12:41:46;33.10;37.00
19256;DHT22;9762;52.490;13.410;2023-04-21T12:44:13;33.10;37.00
19256;DHT22;9762;52.490;13.410;2023-04-21T12:46:39;33.10;37.00
19256;DHT22;9762;52.490;13.410;2023-04-21T12:49:06;32.90;36.90
19256;DHT22;9762;52.490;13.410;2023-04-21T12:51:33;32.70;36.60
19256;DHT22;9762;52.490;13.410;2023-04-21T12:53:59;32.50;37.00
19256;DHT22;9762;52.490;13.410;2023-04-21T12:56:25;32.40;36.50
19256;DHT22;9762;52.490;13.410;2023-04-21T12:58:51;32.30;36.80
19256;DHT22;9762;52.490;13.410;2023-04-21T13:01:17;32.40;37.10
19256;DHT22;9762;52.490;13.410;2023-04-21T13:03:43;32.50;37.00
19256;DHT22;9762;52.490;13.410;2023-04-21T13:06:09;32.60;35.90
19256;DHT22;9762;52.490;13.410;2023-04-21T13:08:35;32.40;36.10
19256;DHT22;9762;52.490;13.410;2023-04-21T13:11:01;31.80;36.50
19256;DHT22;9762;52.490;13.410;2023-04-21T13:13:27;31.30;37.10
19256;DHT22;9762;52.490;13.410;2023-04-21T13:15:52;31.20;37.40
19256;DHT22;9762;52.490;13.410;2023-04-21T13:18:18;30.80;37.10
19256;DHT22;9762;52.490;13.410;2023-04-21T13:20:44;30.30;37.30
19256;DHT22;9762;52.490;13.410;2023-04-21T13:23:10;30.10;38.10
19256;DHT22;9762;52.490;13.410;2023-04-21T13:28:04;29.70;37.90
19256;DHT22;9762;52.490;13.410;2023-04-21T13:30:30;29.60;38.80
19256;DHT22;9762;52.490;13.410;2023-04-21T13:32:56;29.30;38.90
19256;DHT22;9762;52.490;13.410;2023-04-21T13:37:48;28.90;38.90
19256;DHT22;9762;52.490;13.410;2023-04-21T13:40:14;28.90;40.00
19256;DHT22;9762;52.490;13.410;2023-04-21T13:42:40;28.70;40.10
19256;DHT22;9762;52.490;13.410;2023-04-21T13:45:06;28.50;40.50
19256;DHT22;9762;52.490;13.410;2023-04-21T13:47:32;28.30;40.60
19256;DHT22;9762;52.490;13.410;2023-04-21T13:49:58;28.10;40.80
19256;DHT22;9762;52.490;13.410;2023-04-21T13:52:25;28.20;41.00
19256;DHT22;9762;52.490;13.410;2023-04-21T13:54:52;28.30;40.30
19256;DHT22;9762;52.490;13.410;2023-04-21T13:59:44;28.20;40.30
19256;DHT22;9762;52.490;13.410;2023-04-21T14:02:10;28.30;40.70
19256;DHT22;9762;52.490;13.410;2023-04-21T14:04:35;28.50;40.80
19256;DHT22;9762;52.490;13.410;2023-04-21T14:07:02;28.90;40.70
19256;DHT22;9762;52.490;13.410;2023-04-21T14:09:28;29.30;40.00
19256;DHT22;9762;52.490;13.410;2023-04-21T14:11:54;29.60;39.50
19256;DHT22;9762;52.490;13.410;2023-04-21T14:14:20;29.70;38.70
19256;DHT22;9762;52.490;13.410;2023-04-21T14:16:46;29.60;39.10
19256;DHT22;9762;52.490;13.410;2023-04-21T14:19:15;29.30;38.90
19256;DHT22;9762;52.490;13.410;2023-04-21T14:21:41;29.10;39.30
19256;DHT22;9762;52.490;13.410;2023-04-21T14:24:07;29.10;39.60
19256;DHT22;9762;52.490;13.410;2023-04-21T14:26:33;29.00;39.40
19256;DHT22;9762;52.490;13.410;2023-04-21T14:28:59;29.00;39.40
19256;DHT22;9762;52.490;13.410;2023-04-21T14:31:26;29.00;39.50
19256;DHT22;9762;52.490;13.410;2023-04-21T14:33:52;29.00;39.50
19256;DHT22;9762;52.490;13.410;2023-04-21T14:36:17;29.10;39.30
19256;DHT22;9762;52.490;13.410;2023-04-21T14:38:43;29.20;39.50
19256;DHT22;9762;52.490;13.410;2023-04-21T14:41:08;29.40;39.30
19256;DHT22;9762;52.490;13.410;2023-04-21T14:43:34;29.60;39.40
19256;DHT22;9762;52.490;13.410;2023-04-21T14:46:00;29.60;38.40
19256;DHT22;9762;52.490;13.410;2023-04-21T14:48:26;29.40;38.70
19256;DHT22;9762;52.490;13.410;2023-04-21T14:50:51;29.30;38.90
19256;DHT22;9762;52.490;13.410;2023-04-21T14:53:17;29.40;39.00
19256;DHT22;9762;52.490;13.410;2023-04-21T14:55:43;29.50;38.80
19256;DHT22;9762;52.490;13.410;2023-04-21T14:58:08;29.60;38.50
19256;DHT22;9762;52.490;13.410;2023-04-21T15:00:34;29.80;38.30
19256;DHT22;9762;52.490;13.410;2023-04-21T15:03:01;29.80;38.30
19256;DHT22;9762;52.490;13.410;2023-04-21T15:05:27;29.90;37.90
19256;DHT22;9762;52.490;13.410;2023-04-21T15:07:53;30.00;37.90
19256;DHT22;9762;52.490;13.410;2023-04-21T15:10:19;29.60;38.00
19256;DHT22;9762;52.490;13.410;2023-04-21T15:12:44;29.40;38.20
19256;DHT22;9762;52.490;13.410;2023-04-21T15:15:10;29.20;38.40
19256;DHT22;9762;52.490;13.410;2023-04-21T15:17:36;29.20;38.60
19256;DHT22;9762;52.490;13.410;2023-04-21T15:20:02;29.30;38.60
19256;DHT22;9762;52.490;13.410;2023-04-21T15:22:28;29.30;38.40
19256;DHT22;9762;52.490;13.410;2023-04-21T15:24:54;29.40;38.40
19256;DHT22;9762;52.490;13.410;2023-04-21T15:27:19;29.50;38.30
19256;DHT22;9762;52.490;13.410;2023-04-21T15:29:45;29.30;38.50
19256;DHT22;9762;52.490;13.410;2023-04-21T15:32:11;29.20;38.60
19256;DHT22;9762;52.490;13.410;2023-04-21T15:34:37;28.90;39.00
19256;DHT22;9762;52.490;13.410;2023-04-21T15:37:03;28.70;39.10
19256;DHT22;9762;52.490;13.410;2023-04-21T15:39:28;28.40;39.60
19256;DHT22;9762;52.490;13.410;2023-04-21T15:41:54;28.00;39.90
19256;DHT22;9762;52.490;13.410;2023-04-21T15:44:20;27.60;40.10
19256;DHT22;9762;52.490;13.410;2023-04-21T15:46:46;27.20;40.70
19256;DHT22;9762;52.490;13.410;2023-04-21T15:49:12;26.90;41.00
19256;DHT22;9762;52.490;13.410;2023-04-21T15:54:05;26.10;41.80